createdAt,value
2023-05-21T00:00:18.504Z,67.68
2023-05-21T00:02:45.035Z,66.99
2023-05-21T00:05:14.832Z,67.21
2023-05-21T00:07:41.704Z,67.59
2023-05-21T00:10:08.634Z,67.56
2023-05-21T00:12:35.218Z,67.13
2023-05-21T00:15:01.859Z,67.10
2023-05-21T00:17:28.651Z,66.86
2023-05-21T00:19:56.831Z,67.40
2023-05-21T00:22:23.873Z,68.36
2023-05-21T00:24:50.675Z,67.88
2023-05-21T00:27:17.219Z,67.38
2023-05-21T00:29:44.415Z,68.07
2023-05-21T00:32:11.179Z,68.52
2023-05-21T00:34:38.218Z,67.61
2023-05-21T00:37:04.911Z,68.25
2023-05-21T00:39:31.427Z,68.34
2023-05-21T00:41:57.988Z,69.26
2023-05-21T00:44:25.541Z,68.39
2023-05-21T00:46:55.635Z,69.29
2023-05-21T00:49:24.387Z,68.34
2023-05-21T00:51:51.909Z,69.19
2023-05-21T00:54:18.939Z,69.53
2023-05-21T00:56:46.646Z,69.16
2023-05-21T00:59:15.774Z,69.06
2023-05-21T01:01:45.549Z,69.08
2023-05-21T01:04:13.112Z,69.33
2023-05-21T01:06:39.555Z,69.74
2023-05-21T01:09:07.237Z,69.93
2023-05-21T01:11:55.483Z,68.79
2023-05-21T01:14:24.235Z,70.03
2023-05-21T01:16:52.182Z,69.70
2023-05-21T01:19:21.104Z,69.38
2023-05-21T01:21:56.257Z,70.27
2023-05-21T01:24:22.780Z,70.27
2023-05-21T01:26:49.588Z,70.56
2023-05-21T01:29:16.415Z,70.17
2023-05-21T01:31:52.836Z,70.97
2023-05-21T01:34:22.189Z,70.70
2023-05-21T01:36:57.454Z,70.36
2023-05-21T01:39:38.573Z,70.73
2023-05-21T01:42:08.595Z,70.98
2023-05-21T01:44:36.191Z,70.93
2023-05-21T01:47:04.166Z,70.79
2023-05-21T01:49:31.028Z,70.93
2023-05-21T01:51:57.583Z,71.08
2023-05-21T01:54:24.099Z,71.36
2023-05-21T01:56:50.798Z,71.89
2023-05-21T01:59:17.409Z,71.51
2023-05-21T02:01:44.023Z,71.02
2023-05-21T02:04:10.659Z,71.97
2023-05-21T02:06:39.443Z,72.26
2023-05-21T02:09:06.011Z,71.25
2023-05-21T02:11:32.482Z,71.74
2023-05-21T02:13:58.909Z,73.28
2023-05-21T02:16:25.543Z,72.68
2023-05-21T02:18:53.520Z,72.26
2023-05-21T02:21:20.762Z,73.29
2023-05-21T02:23:47.223Z,72.62
2023-05-21T02:26:13.715Z,73.40
2023-05-21T02:28:40.502Z,73.54
2023-05-21T02:31:06.992Z,73.53
2023-05-21T02:33:33.515Z,74.08
2023-05-21T02:36:00.072Z,74.11
2023-05-21T02:38:26.676Z,73.94
2023-05-21T02:40:53.327Z,73.94
2023-05-21T02:43:20.180Z,74.37
2023-05-21T02:45:46.738Z,74.23
2023-05-21T02:48:13.353Z,74.26
2023-05-21T02:50:39.887Z,74.36
2023-05-21T02:53:06.416Z,74.30
2023-05-21T02:55:32.948Z,74.72
2023-05-21T02:57:59.483Z,74.47
2023-05-21T03:00:26.240Z,74.98
2023-05-21T03:02:52.821Z,75.60
2023-05-21T03:05:19.415Z,75.65
2023-05-21T03:07:45.907Z,76.67
2023-05-21T03:10:12.429Z,76.67
2023-05-21T03:12:39.249Z,76.01
2023-05-21T03:15:06.189Z,76.77
2023-05-21T03:17:32.703Z,76.39
2023-05-21T03:19:59.190Z,76.13
2023-05-21T03:22:25.724Z,76.71
2023-05-21T03:24:53.412Z,76.64
2023-05-21T03:27:19.886Z,77.16
2023-05-21T03:29:46.379Z,76.43
2023-05-21T03:32:13.406Z,76.47
2023-05-21T03:34:39.994Z,76.26
2023-05-21T03:37:06.580Z,76.65
2023-05-21T03:39:33.028Z,76.60
2023-05-21T03:41:59.489Z,77.32
2023-05-21T03:44:26.064Z,77.33
2023-05-21T03:46:52.573Z,77.15
2023-05-21T03:49:20.733Z,77.69
2023-05-21T03:51:47.169Z,78.54
2023-05-21T03:54:13.661Z,77.71
2023-05-21T03:56:40.087Z,78.51
2023-05-21T03:59:06.592Z,78.12
2023-05-21T04:01:33.383Z,77.78
2023-05-21T04:04:00.021Z,78.79
2023-05-21T04:06:26.606Z,78.08
2023-05-21T04:08:53.155Z,80.07
2023-05-21T04:11:19.741Z,79.24
2023-05-21T04:13:48.052Z,79.29
2023-05-21T04:16:18.900Z,79.66
2023-05-21T04:18:46.679Z,80.11
2023-05-21T04:21:13.693Z,80.48
2023-05-21T04:23:40.326Z,80.60
2023-05-21T04:26:07.584Z,80.47
2023-05-21T04:28:35.278Z,80.14
2023-05-21T04:31:01.861Z,80.28
2023-05-21T04:33:28.741Z,79.91
2023-05-21T04:35:55.432Z,80.75
2023-05-21T04:38:21.880Z,80.64
2023-05-21T04:40:53.327Z,80.78
2023-05-21T04:43:26.135Z,80.68
2023-05-21T04:45:54.881Z,81.33
2023-05-21T04:48:26.735Z,80.59
2023-05-21T04:50:56.720Z,80.81
2023-05-21T04:53:23.856Z,80.83
2023-05-21T04:55:50.388Z,80.37
2023-05-21T04:58:19.758Z,81.05
2023-05-21T05:00:47.180Z,80.61
2023-05-21T05:03:14.204Z,81.39
2023-05-21T05:05:40.982Z,81.88
2023-05-21T05:08:07.654Z,81.42
2023-05-21T05:10:34.166Z,81.16
2023-05-21T05:13:00.798Z,81.19
2023-05-21T05:15:27.346Z,81.80
2023-05-21T05:17:54.599Z,81.50
2023-05-21T05:20:21.246Z,81.02
2023-05-21T05:22:47.711Z,81.26
2023-05-21T05:25:14.160Z,81.21
2023-05-21T05:27:40.593Z,81.60
2023-05-21T05:30:07.795Z,81.95
2023-05-21T05:32:34.368Z,81.92
2023-05-21T05:35:02.404Z,81.67
2023-05-21T05:37:29.199Z,81.37
2023-05-21T05:39:55.976Z,81.79
2023-05-21T05:42:22.490Z,81.46
2023-05-21T05:44:48.938Z,81.61
2023-05-21T05:47:16.612Z,80.87
2023-05-21T05:49:43.102Z,81.46
2023-05-21T05:52:09.621Z,81.93
2023-05-21T05:54:36.118Z,81.75
2023-05-21T05:57:02.604Z,81.51
2023-05-21T05:59:29.163Z,81.23
2023-05-21T06:01:55.620Z,81.41
2023-05-21T06:04:22.052Z,81.88
2023-05-21T06:06:48.608Z,81.27
2023-05-21T06:09:15.244Z,81.36
2023-05-21T06:11:41.728Z,80.84
2023-05-21T06:14:08.184Z,80.59
2023-05-21T06:16:34.957Z,80.35
2023-05-21T06:19:01.475Z,80.31
2023-05-21T06:21:27.949Z,79.67
2023-05-21T06:23:54.370Z,80.22
2023-05-21T06:26:21.889Z,79.84
2023-05-21T06:28:48.414Z,78.01
2023-05-21T06:31:15.093Z,78.57
2023-05-21T06:33:42.044Z,78.26
2023-05-21T06:36:08.957Z,77.92
2023-05-21T06:38:35.438Z,77.61
2023-05-21T06:41:03.920Z,77.02
2023-05-21T06:43:30.418Z,77.55
2023-05-21T06:45:56.916Z,77.81
2023-05-21T06:48:23.414Z,77.87
2023-05-21T06:50:49.888Z,77.49
2023-05-21T06:53:16.612Z,77.88
2023-05-21T06:55:46.022Z,77.29
2023-05-21T06:58:12.501Z,78.01
2023-05-21T07:00:39.042Z,77.87
2023-05-21T07:03:05.785Z,78.41
2023-05-21T07:05:32.453Z,77.99
2023-05-21T07:07:58.919Z,78.01
2023-05-21T07:10:25.402Z,77.75
2023-05-21T07:12:51.920Z,78.04
2023-05-21T07:15:18.489Z,77.66
2023-05-21T07:17:45.113Z,77.70
2023-05-21T07:20:12.576Z,77.29
2023-05-21T07:22:39.466Z,76.95
2023-05-21T07:25:06.768Z,76.16
2023-05-21T07:27:33.220Z,77.16
2023-05-21T07:29:59.637Z,76.73
2023-05-21T07:32:28.886Z,76.93
2023-05-21T07:34:56.427Z,76.90
2023-05-21T07:37:22.898Z,76.76
2023-05-21T07:39:49.360Z,76.29
2023-05-21T07:42:16.020Z,75.31
2023-05-21T07:44:42.485Z,75.59
2023-05-21T07:47:08.922Z,75.48
2023-05-21T07:49:35.572Z,75.19
2023-05-21T07:52:02.636Z,75.41
2023-05-21T07:54:29.081Z,75.29
2023-05-21T07:56:55.672Z,75.95
2023-05-21T07:59:22.134Z,73.54
2023-05-21T08:01:48.646Z,74.97
2023-05-21T08:04:15.137Z,73.79
2023-05-21T08:06:41.732Z,72.15
2023-05-21T08:09:08.300Z,72.14
2023-05-21T08:11:34.810Z,72.64
2023-05-21T08:14:01.354Z,72.49
2023-05-21T08:16:27.933Z,72.65
2023-05-21T08:18:54.592Z,72.66
2023-05-21T08:21:21.538Z,73.38
2023-05-21T08:23:48.069Z,73.37
2023-05-21T08:26:17.682Z,73.31
2023-05-21T08:28:44.169Z,73.25
2023-05-21T08:31:11.156Z,72.37
2023-05-21T08:33:38.476Z,72.58
2023-05-21T08:36:06.492Z,73.29
2023-05-21T08:38:33.002Z,72.73
2023-05-21T08:41:00.455Z,72.73
2023-05-21T08:43:28.473Z,73.91
2023-05-21T08:45:56.542Z,72.27
2023-05-21T08:48:24.300Z,71.78
2023-05-21T08:50:53.474Z,72.45
2023-05-21T08:53:28.331Z,70.52
2023-05-21T08:55:56.484Z,70.51
2023-05-21T08:58:23.051Z,69.64
2023-05-21T09:00:49.590Z,70.29
2023-05-21T09:03:16.699Z,68.62
2023-05-21T09:05:44.925Z,68.48
2023-05-21T09:08:19.063Z,68.88
2023-05-21T09:10:50.350Z,68.45
2023-05-21T09:13:17.973Z,68.37
2023-05-21T09:15:45.751Z,66.71
2023-05-21T09:18:12.703Z,66.07
2023-05-21T09:20:39.426Z,67.16
2023-05-21T09:23:12.322Z,67.81
2023-05-21T09:25:39.852Z,66.65
2023-05-21T09:28:12.553Z,65.67
2023-05-21T09:30:47.712Z,65.94
2023-05-21T09:33:29.432Z,65.32
2023-05-21T09:35:56.515Z,64.67
2023-05-21T09:38:24.640Z,64.51
2023-05-21T09:40:51.273Z,64.10
2023-05-21T09:43:18.062Z,65.11
2023-05-21T09:45:55.423Z,64.66
2023-05-21T09:48:42.090Z,62.91
2023-05-21T09:51:16.931Z,63.26
2023-05-21T09:53:52.322Z,64.24
2023-05-21T09:56:24.479Z,63.89
2023-05-21T09:59:00.320Z,64.71
2023-05-21T10:01:28.501Z,63.22
2023-05-21T10:03:57.197Z,64.00
2023-05-21T10:06:28.726Z,63.53
2023-05-21T10:08:57.444Z,62.23
2023-05-21T10:11:27.228Z,62.16
2023-05-21T10:13:58.197Z,62.81
2023-05-21T10:16:25.048Z,61.17
2023-05-21T10:18:54.393Z,61.48
2023-05-21T10:21:24.119Z,63.07
2023-05-21T10:23:51.545Z,62.49
2023-05-21T10:26:21.594Z,61.29
2023-05-21T10:28:51.107Z,60.19
2023-05-21T10:31:18.482Z,59.95
2023-05-21T10:33:44.989Z,60.01
2023-05-21T10:36:11.935Z,62.10
2023-05-21T10:38:38.969Z,59.57
2023-05-21T10:41:07.174Z,59.60
2023-05-21T10:43:55.175Z,61.07
2023-05-21T10:46:42.749Z,61.18
2023-05-21T10:49:39.151Z,60.55
2023-05-21T10:52:43.281Z,58.47
2023-05-21T10:55:36.454Z,59.81
2023-05-21T10:58:20.567Z,59.98
2023-05-21T11:00:47.364Z,57.29
2023-05-21T11:03:15.086Z,58.60
2023-05-21T11:05:51.952Z,57.28
2023-05-21T11:08:23.004Z,57.95
2023-05-21T11:10:54.728Z,57.14
2023-05-21T11:13:21.774Z,57.54
2023-05-21T11:15:57.372Z,58.64
2023-05-21T11:18:46.878Z,58.65
2023-05-21T11:21:18.677Z,57.90
2023-05-21T11:23:51.496Z,57.07
2023-05-21T11:26:23.290Z,56.77
2023-05-21T11:29:10.739Z,57.75
2023-05-21T11:31:40.936Z,57.10
2023-05-21T11:34:28.601Z,57.99
2023-05-21T11:37:18.727Z,56.52
2023-05-21T11:39:45.861Z,57.76
2023-05-21T11:42:12.917Z,58.20
2023-05-21T11:44:48.959Z,57.59
2023-05-21T11:47:17.918Z,56.63
2023-05-21T11:49:45.997Z,56.99
2023-05-21T11:52:13.863Z,57.49
2023-05-21T11:54:52.971Z,56.34
2023-05-21T11:57:19.886Z,56.91
2023-05-21T11:59:47.063Z,56.56
2023-05-21T12:02:17.925Z,55.76
2023-05-21T12:04:46.732Z,58.48
2023-05-21T12:07:15.588Z,56.89
2023-05-21T12:09:47.262Z,57.32
2023-05-21T12:12:19.218Z,56.83
2023-05-21T12:14:51.294Z,58.31
2023-05-21T12:17:19.731Z,56.68
2023-05-21T12:19:47.734Z,56.78
2023-05-21T12:22:17.823Z,57.37
2023-05-21T12:24:45.255Z,58.18
2023-05-21T12:27:13.439Z,58.31
2023-05-21T12:29:42.574Z,58.43
2023-05-21T12:32:11.234Z,59.78
2023-05-21T12:34:52.686Z,58.10
2023-05-21T12:37:27.713Z,58.15
2023-05-21T12:39:57.941Z,59.36
2023-05-21T12:42:34.803Z,58.88
2023-05-21T12:45:08.476Z,58.98
2023-05-21T12:47:35.040Z,58.43
2023-05-21T12:50:08.193Z,59.33
2023-05-21T12:52:34.750Z,59.64
2023-05-21T12:55:01.210Z,59.37
2023-05-21T12:57:35.804Z,58.00
2023-05-21T13:00:06.457Z,58.70
2023-05-21T13:02:35.827Z,57.84
2023-05-21T13:05:04.697Z,59.03
2023-05-21T13:07:32.666Z,60.44
2023-05-21T13:10:00.608Z,58.93
2023-05-21T13:12:29.201Z,59.12
2023-05-21T13:15:01.021Z,58.63
2023-05-21T13:17:28.178Z,58.64
2023-05-21T13:20:12.415Z,58.36
2023-05-21T13:22:46.480Z,59.00
2023-05-21T13:25:33.479Z,60.31
2023-05-21T13:28:03.327Z,60.24
2023-05-21T13:30:29.893Z,59.49
2023-05-21T13:32:56.656Z,59.42
2023-05-21T13:35:23.257Z,59.56
2023-05-21T13:37:49.798Z,59.37
2023-05-21T13:40:17.069Z,60.28
2023-05-21T13:42:48.717Z,60.51
2023-05-21T13:45:18.512Z,60.40
2023-05-21T13:47:46.799Z,60.33
2023-05-21T13:50:13.741Z,59.01
2023-05-21T13:52:40.664Z,60.39
2023-05-21T13:55:07.921Z,59.47
2023-05-21T13:57:34.555Z,59.57
2023-05-21T14:00:01.167Z,59.21
2023-05-21T14:02:28.026Z,60.75
2023-05-21T14:04:54.497Z,59.28
2023-05-21T14:07:22.021Z,60.07
2023-05-21T14:09:48.588Z,60.48
2023-05-21T14:12:15.047Z,60.42
2023-05-21T14:14:42.021Z,58.79
2023-05-21T14:17:08.610Z,59.26
2023-05-21T14:19:35.218Z,60.61
2023-05-21T14:22:01.890Z,60.86
2023-05-21T14:24:28.388Z,60.24
2023-05-21T14:26:54.966Z,59.15
2023-05-21T14:29:21.443Z,59.22
2023-05-21T14:31:48.455Z,59.05
2023-05-21T14:34:14.916Z,58.85
2023-05-21T14:36:41.380Z,59.35
2023-05-21T14:39:07.869Z,60.84
2023-05-21T14:41:34.307Z,60.52
2023-05-21T14:44:00.894Z,60.82
2023-05-21T14:46:27.390Z,60.62
2023-05-21T14:48:55.380Z,60.44
2023-05-21T14:51:22.145Z,61.03
2023-05-21T14:53:48.641Z,61.59
2023-05-21T14:56:15.161Z,62.03
2023-05-21T14:58:41.687Z,61.40
2023-05-21T15:01:08.448Z,61.03
2023-05-21T15:03:35.111Z,61.86
2023-05-21T15:06:01.621Z,62.75
2023-05-21T15:08:28.097Z,62.75
2023-05-21T15:10:54.616Z,62.90
2023-05-21T15:13:21.404Z,62.92
2023-05-21T15:15:49.264Z,63.16
2023-05-21T15:18:15.960Z,63.02
2023-05-21T15:20:42.448Z,64.53
2023-05-21T15:23:16.756Z,64.82
2023-05-21T15:25:44.869Z,63.77
2023-05-21T15:28:14.527Z,64.11
2023-05-21T15:30:41.022Z,64.25
2023-05-21T15:33:07.584Z,63.15
2023-05-21T15:35:37.750Z,64.53
2023-05-21T15:38:04.617Z,65.35
2023-05-21T15:40:32.181Z,65.36
2023-05-21T15:42:58.717Z,64.92
2023-05-21T15:45:25.266Z,65.03
2023-05-21T15:47:51.752Z,65.68
2023-05-21T15:50:18.306Z,65.65
2023-05-21T15:52:44.738Z,65.49
2023-05-21T15:55:11.310Z,64.85
2023-05-21T15:57:37.857Z,66.04
2023-05-21T16:00:05.012Z,66.47
2023-05-21T16:02:31.680Z,64.78
2023-05-21T16:04:58.219Z,65.04
2023-05-21T16:07:24.740Z,64.41
2023-05-21T16:09:51.275Z,65.95
2023-05-21T16:12:18.092Z,66.47
2023-05-21T16:14:44.698Z,65.93
2023-05-21T16:17:11.208Z,65.35
2023-05-21T16:19:38.726Z,66.72
2023-05-21T16:22:05.247Z,66.78
2023-05-21T16:24:31.845Z,66.80
2023-05-21T16:26:58.398Z,66.50
2023-05-21T16:29:24.904Z,66.13
2023-05-21T16:31:51.431Z,67.47
2023-05-21T16:34:17.889Z,66.81
2023-05-21T16:36:44.380Z,67.21
2023-05-21T16:39:10.797Z,67.09
2023-05-21T16:41:37.247Z,68.55
2023-05-21T16:44:03.763Z,67.67
2023-05-21T16:46:30.496Z,67.68
2023-05-21T16:48:57.086Z,67.79
2023-05-21T16:51:23.521Z,68.00
2023-05-21T16:53:49.986Z,67.96
2023-05-21T16:56:16.687Z,68.33
2023-05-21T16:58:43.203Z,67.68
2023-05-21T17:01:09.809Z,67.39
2023-05-21T17:03:36.548Z,67.51
2023-05-21T17:06:03.206Z,68.77
2023-05-21T17:08:29.691Z,68.50
2023-05-21T17:10:56.250Z,68.25
2023-05-21T17:13:23.373Z,68.21
2023-05-21T17:15:53.525Z,69.71
2023-05-21T17:18:20.130Z,69.51
2023-05-21T17:20:46.720Z,69.12
2023-05-21T17:23:13.479Z,69.18
2023-05-21T17:25:40.846Z,69.40
2023-05-21T17:28:07.573Z,69.31
2023-05-21T17:30:34.179Z,68.77
2023-05-21T17:33:03.495Z,69.22
2023-05-21T17:35:30.352Z,69.07
2023-05-21T17:37:56.841Z,69.86
2023-05-21T17:40:24.600Z,69.61
2023-05-21T17:42:52.447Z,69.58
2023-05-21T17:45:19.118Z,70.02
2023-05-21T17:47:45.881Z,70.68
2023-05-21T17:50:12.340Z,71.01
2023-05-21T17:52:38.834Z,71.48
2023-05-21T17:55:05.777Z,71.72
2023-05-21T17:57:32.248Z,70.86
2023-05-21T17:59:58.738Z,71.97
2023-05-21T18:02:26.000Z,71.08
2023-05-21T18:04:52.503Z,72.58
2023-05-21T18:07:19.002Z,72.83
2023-05-21T18:09:45.462Z,72.52
2023-05-21T18:12:11.937Z,72.74
2023-05-21T18:14:38.361Z,73.06
2023-05-21T18:17:05.848Z,72.57
2023-05-21T18:19:32.696Z,73.26
2023-05-21T18:21:59.246Z,73.51
2023-05-21T18:24:25.991Z,73.14
2023-05-21T18:26:52.477Z,73.25
2023-05-21T18:29:18.942Z,74.40
2023-05-21T18:31:45.594Z,74.96
2023-05-21T18:34:12.275Z,74.60
2023-05-21T18:36:39.032Z,74.28
2023-05-21T18:39:07.093Z,74.72
2023-05-21T18:41:33.971Z,74.48
2023-05-21T18:44:01.832Z,76.02
2023-05-21T18:46:28.947Z,74.76
2023-05-21T18:48:55.992Z,76.55
2023-05-21T18:51:22.649Z,77.09
2023-05-21T18:53:49.182Z,76.57
2023-05-21T18:56:15.704Z,77.58
2023-05-21T18:58:42.256Z,78.48
2023-05-21T19:01:08.844Z,77.32
2023-05-21T19:03:35.673Z,77.47
2023-05-21T19:06:02.226Z,78.51
2023-05-21T19:08:28.680Z,78.41
2023-05-21T19:10:55.297Z,77.58
2023-05-21T19:13:23.550Z,78.01
2023-05-21T19:15:49.994Z,78.73
2023-05-21T19:18:17.193Z,79.18
2023-05-21T19:20:43.744Z,79.45
2023-05-21T19:23:10.466Z,80.16
2023-05-21T19:25:36.939Z,80.18
2023-05-21T19:28:03.519Z,80.53
2023-05-21T19:30:30.000Z,80.06
2023-05-21T19:32:56.584Z,80.94
2023-05-21T19:35:23.090Z,81.83
2023-05-21T19:37:49.878Z,80.84
2023-05-21T19:40:17.724Z,81.26
2023-05-21T19:42:44.690Z,82.07
2023-05-21T19:45:11.829Z,82.52
2023-05-21T19:47:40.977Z,82.26
2023-05-21T19:50:09.724Z,82.93
2023-05-21T19:52:37.530Z,83.16
2023-05-21T19:55:05.789Z,83.52
2023-05-21T19:57:32.654Z,83.54
2023-05-21T19:59:59.459Z,83.32
2023-05-21T20:02:28.454Z,83.68
2023-05-21T20:04:56.933Z,83.68
2023-05-21T20:07:23.685Z,85.15
2023-05-21T20:09:50.597Z,84.52
2023-05-21T20:12:17.060Z,84.02
2023-05-21T20:14:46.670Z,85.40
2023-05-21T20:17:13.853Z,85.47
2023-05-21T20:19:40.488Z,84.92
2023-05-21T20:22:07.016Z,85.77
2023-05-21T20:24:33.573Z,86.10
2023-05-21T20:27:01.706Z,87.01
2023-05-21T20:29:29.065Z,87.33
2023-05-21T20:31:55.632Z,87.74
2023-05-21T20:34:22.298Z,87.86
2023-05-21T20:36:48.861Z,87.58
2023-05-21T20:39:15.546Z,87.82
2023-05-21T20:41:44.765Z,88.52
2023-05-21T20:44:11.851Z,88.27
2023-05-21T20:46:38.958Z,89.60
2023-05-21T20:49:06.001Z,89.06
2023-05-21T20:51:33.092Z,89.93
2023-05-21T20:53:59.716Z,89.46
2023-05-21T20:56:40.854Z,90.44
2023-05-21T20:59:10.926Z,90.72
2023-05-21T21:01:38.176Z,91.31
2023-05-21T21:04:05.167Z,91.73
2023-05-21T21:06:32.019Z,90.73
2023-05-21T21:08:58.762Z,91.53
2023-05-21T21:11:26.578Z,91.25
2023-05-21T21:13:53.107Z,92.13
2023-05-21T21:16:19.636Z,92.13
2023-05-21T21:18:47.044Z,92.37
2023-05-21T21:21:13.838Z,92.14
2023-05-21T21:23:40.439Z,92.50
2023-05-21T21:26:07.164Z,92.26
2023-05-21T21:28:33.987Z,91.79
2023-05-21T21:31:00.650Z,92.72
2023-05-21T21:33:28.334Z,92.81
2023-05-21T21:35:55.031Z,93.21
2023-05-21T21:38:21.667Z,92.89
2023-05-21T21:40:48.248Z,93.00
2023-05-21T21:43:14.743Z,92.93
2023-05-21T21:45:41.290Z,93.28
2023-05-21T21:48:08.048Z,93.88
2023-05-21T21:50:34.635Z,93.95
2023-05-21T21:53:01.238Z,93.62
2023-05-21T21:55:29.517Z,94.37
2023-05-21T21:57:56.047Z,93.92
2023-05-21T22:00:26.316Z,93.65
2023-05-21T22:02:52.856Z,94.54
2023-05-21T22:05:19.328Z,94.01
2023-05-21T22:07:46.531Z,94.66
2023-05-21T22:10:15.105Z,94.74
2023-05-21T22:12:42.219Z,94.62
2023-05-21T22:15:11.371Z,94.73
2023-05-21T22:17:38.316Z,95.50
2023-05-21T22:20:05.874Z,94.91
2023-05-21T22:22:32.385Z,94.20
2023-05-21T22:24:58.868Z,94.75
2023-05-21T22:27:25.410Z,95.01
2023-05-21T22:29:51.899Z,95.59
2023-05-21T22:32:18.407Z,95.48
2023-05-21T22:34:45.128Z,96.02
2023-05-21T22:37:12.254Z,96.27
2023-05-21T22:39:38.942Z,96.41
2023-05-21T22:42:05.887Z,97.00
2023-05-21T22:44:32.390Z,97.10
2023-05-21T22:47:00.217Z,96.79
2023-05-21T22:49:27.045Z,96.92
2023-05-21T22:51:54.303Z,96.52
2023-05-21T22:54:21.166Z,96.99
2023-05-21T22:56:49.255Z,96.93
2023-05-21T22:59:15.782Z,97.44
2023-05-21T23:01:42.521Z,97.30
2023-05-21T23:04:09.024Z,97.99
2023-05-21T23:06:35.575Z,97.57
2023-05-21T23:09:02.029Z,98.36
2023-05-21T23:11:28.532Z,98.31
2023-05-21T23:13:54.975Z,97.88
2023-05-21T23:16:22.615Z,97.29
2023-05-21T23:18:49.975Z,97.85
2023-05-21T23:21:17.127Z,98.04
2023-05-21T23:23:43.681Z,98.61
2023-05-21T23:26:10.192Z,99.05
2023-05-21T23:28:37.270Z,99.72
2023-05-21T23:31:03.837Z,100.00
2023-05-21T23:33:30.525Z,99.77
2023-05-21T23:35:57.018Z,100.00
2023-05-21T23:38:24.137Z,100.00
2023-05-21T23:40:51.008Z,100.00
2023-05-21T23:43:17.632Z,100.00
2023-05-21T23:45:44.503Z,100.00
2023-05-21T23:48:11.855Z,100.00
2023-05-21T23:50:38.650Z,100.00
2023-05-21T23:53:05.200Z,100.00
2023-05-21T23:55:31.664Z,100.00
2023-05-21T23:57:58.153Z,100.00
